Sunday, March 24, 2019, 8:02 PM EDT
Back to Local

KFMH, Otis Air National Guard Base

Location: Mashpee, MA, United States Lat: 41.65
Local Time: 8:02 PM EDT ( 0:02 GMT) Lon: -70.517
Time Zone: US/Eastern Elev: 131 ft

Show me the last for .
Show Coded

Time T Td Feel RH Dir Speed Gust Alt SLP Vis Weather Sky Remarks
2019-03-24 19:35 43 28 34 56 240° 20 - 29.97 - 10 CLR None
2019-03-24 19:15 43 28 33 56 230° 22 28 29.98 - 10 CLR None
2019-03-24 18:55 43 30 33 60 240° 16 25 29.98 - 10 CLR None
2019-03-24 18:35 43 30 34 60 230° 21 - 29.98 - 10 CLR None
2019-03-24 18:15 43 28 33 56 230° 18 28 29.98 - 10 CLR None
2019-03-24 17:55 43 27 35 52 230° 17 - 29.98 - 10 CLR None
2019-03-24 17:35 43 28 33 56 220° 16 25 29.98 - 10 CLR None
2019-03-24 17:15 43 28 33 56 220° 18 26 29.99 - 10 CLR None
2019-03-24 16:55 43 28 33 56 220° 13 24 30.00 - 10 CLR None
2019-03-24 16:35 43 27 33 52 220° 18 26 30.00 - 10 CLR None
2019-03-24 16:15 43 23 33 45 220° 18 25 30.00 - 10 CLR None
2019-03-24 15:55 45 25 35 45 230° 23 31 30.00 - 10 CLR None
2019-03-24 15:35 45 25 35 45 220° 23 30 30.00 - 10 CLR None
2019-03-24 15:15 46 27 37 45 230° 18 30 30.01 - 10 CLR None
2019-03-24 14:55 48 27 39 42 220° 18 36 30.01 - 10 CLR None
2019-03-24 14:35 48 23 40 36 230° 20 28 30.01 - 10 CLR None
2019-03-24 14:15 48 25 40 39 240° 23 30 30.02 - 10 CLR None
2019-03-24 13:55 48 27 41 42 230° 22 - 30.03 - 10 CLR None
2019-03-24 13:35 48 27 41 42 220° 23 - 30.03 - 10 CLR None
2019-03-24 13:15 48 27 40 42 230° 18 25 30.04 - 10 CLR None
2019-03-24 12:55 48 25 41 39 230° 21 - 30.05 - 10 CLR None
2019-03-24 12:35 48 25 41 39 240° 15 21 30.04 - 10 CLR None
2019-03-24 12:15 48 21 42 34 220° 18 - 30.05 - 10 CLR None
2019-03-24 11:55 46 21 40 36 240° 15 - 30.05 - 10 CLR None
2019-03-24 11:35 46 21 40 36 240° 14 - 30.06 - 10 CLR None
2019-03-24 11:15 45 19 38 36 260° 14 - 30.07 - 10 CLR None
2019-03-24 10:55 43 19 35 38 270° 15 - 30.09 - 10 CLR None
2019-03-24 10:35 43 19 35 38 250° 17 - 30.09 - 10 CLR None
2019-03-24 10:15 43 19 37 38 260° 12 - 30.09 - 10 CLR None
2019-03-24 09:55 41 19 33 41 250° 14 - 30.09 - 10 CLR None
2019-03-24 09:35 39 18 30 41 250° 13 20 30.09 - 10 CLR None
2019-03-24 09:15 39 18 31 41 260° 15 - 30.09 - 10 CLR None
2019-03-24 08:55 37 18 27 44 270° 12 20 30.09 - 10 CLR None
2019-03-24 08:35 37 18 29 44 270° 13 - 30.10 - 10 CLR None
2019-03-24 08:15 36 18 28 47 270° 12 - 30.09 - 10 CLR None
2019-03-24 07:55 36 18 28 47 260° 12 - 30.09 - 10 CLR None
2019-03-24 07:35 34 18 28 50 250° 7 - 30.08 - 10 CLR None
2019-03-24 07:15 30 18 23 58 260° 7 - 30.08 - 10 CLR None
2019-03-24 06:55 30 16 23 54 250° 8 - 30.07 - 10 CLR None
2019-03-24 06:35 28 16 21 58 240° 7 - 30.07 - 10 CLR None
2019-03-24 06:15 30 16 21 54 260° 12 - 30.07 - 10 CLR None
2019-03-24 05:55 30 14 22 50 250° 9 - 30.06 - 10 CLR None
2019-03-24 05:35 28 14 20 54 250° 9 - 30.06 - 10 CLR None
2019-03-24 05:15 28 12 21 50 270° 7 - 30.05 - 10 CLR None
2019-03-24 04:55 30 14 20 50 290° 6 13 30.05 - 10 CLR None
2019-03-24 04:35 28 14 20 54 280° 8 - 30.04 - 10 CLR None
2019-03-24 04:15 30 14 23 50 290° 8 - 30.03 - 10 CLR None
2019-03-24 03:55 30 14 18 50 280° 10 17 30.03 - 10 CLR None
2019-03-24 03:35 30 14 21 50 290° 10 - 30.03 - 10 CLR None
2019-03-24 03:15 30 14 19 50 280° 9 16 30.02 - 10 CLR None
2019-03-24 02:55 32 12 22 43 300° 15 - 30.02 - 10 CLR None
2019-03-24 02:35 30 12 20 46 290° 13 - 30.01 - 10 CLR None
2019-03-24 02:15 32 14 23 46 290° 12 - 30.01 - 10 CLR None
2019-03-24 01:55 32 14 23 46 290° 13 - 30.01 - 10 CLR None
2019-03-24 01:35 32 14 23 46 280° 12 - 30.00 - 10 CLR None
2019-03-24 01:15 32 14 23 46 300° 12 - 29.99 - 10 CLR None
2019-03-24 00:55 32 14 23 46 300° 12 - 29.99 - 10 CLR None
2019-03-24 00:35 32 14 19 46 290° 12 23 29.98 - 10 CLR None
2019-03-24 00:15 34 14 22 43 300° 16 22 29.97 - 10 CLR None
2019-03-23 23:55 34 16 22 47 290° 15 23 29.96 - 10 CLR None
2019-03-23 23:35 34 16 25 47 290° 13 - 29.96 - 10 CLR None
2019-03-23 23:15 34 14 24 43 300° 15 - 29.94 - 10 CLR None
2019-03-23 22:55 36 14 23 40 290° 20 26 29.93 - 10 CLR None
2019-03-23 22:35 36 16 25 43 290° 20 - 29.93 - 10 CLR None
2019-03-23 22:15 36 16 22 43 290° 16 31 29.92 - 10 CLR None
2019-03-23 21:55 37 18 25 44 290° 21 31 29.90 - 10 CLR None
2019-03-23 21:35 37 18 26 44 300° 24 - 29.89 - 10 CLR None
2019-03-23 21:15 37 19 27 47 290° 18 - 29.89 - 10 CLR None
2019-03-23 20:55 37 21 26 51 280° 16 23 29.88 - 10 CLR None
2019-03-23 20:35 39 21 30 48 290° 20 - 29.87 - 10 CLR None
2019-03-23 20:15 39 21 28 48 300° 17 28 29.85 - 10 CLR None

Support USWX by starting your Amazon purchase here.